Time;durP1;ratioP1;P1;durP2;ratioP2;P2;SDS_P1;SDS_P2;PMS_P1;PMS_P2;Temp;Humidity;BMP_temperature;BMP_pressure;BME280_temperature;BME280_humidity;BME280_pressure;Samples;Min_cycle;Max_cycle;Signal;HPM_P1;HPM_P2
2021/04/14 00:02:23;;;;;;;7.40;4.80;;;0.10;99.90;;;;;;4874407;29;20049;-71
2021/04/14 00:04:49;;;;;;;8.75;5.20;;;0.10;99.90;;;;;;4876547;29;20261;-72
2021/04/14 00:07:16;;;;;;;9.70;4.97;;;0.10;99.90;;;;;;4882076;29;20077;-71
2021/04/14 00:09:43;;;;;;;15.43;5.20;;;0.00;99.90;;;;;;4891264;29;20064;-71
2021/04/14 00:12:11;;;;;;;8.45;4.75;;;0.10;99.90;;;;;;4857738;29;20401;-71
2021/04/14 00:14:38;;;;;;;6.97;4.53;;;-0.10;99.90;;;;;;4892077;29;20675;-72
2021/04/14 00:17:05;;;;;;;5.40;4.25;;;-0.10;99.90;;;;;;4883158;29;20128;-73
2021/04/14 00:19:32;;;;;;;10.98;4.07;;;-0.20;99.90;;;;;;4891190;29;20532;-73
2021/04/14 00:21:59;;;;;;;9.50;3.97;;;-0.30;99.90;;;;;;4890642;29;20064;-72
2021/04/14 00:24:26;;;;;;;6.85;3.78;;;-0.30;99.90;;;;;;4876209;29;20777;-72
2021/04/14 00:26:53;;;;;;;9.55;4.65;;;-0.40;99.90;;;;;;4890909;29;20068;-74
2021/04/14 00:29:20;;;;;;;14.68;4.10;;;-0.40;99.90;;;;;;4872496;29;20563;-71
2021/04/14 00:31:46;;;;;;;11.68;4.18;;;-0.50;99.90;;;;;;4872816;29;20678;-72
2021/04/14 00:34:17;;;;;;;11.50;3.85;;;-0.50;99.90;;;;;;4886988;29;20423;-72
2021/04/14 00:36:45;;;;;;;5.38;4.00;;;-0.50;99.90;;;;;;4882604;29;20056;-72
2021/04/14 00:39:18;;;;;;;8.05;4.70;;;-0.50;99.90;;;;;;4871400;29;20064;-72
2021/04/14 00:41:47;;;;;;;9.80;4.90;;;-0.60;99.90;;;;;;4874644;29;20071;-71
2021/04/14 00:44:14;;;;;;;7.50;4.70;;;-0.60;99.90;;;;;;4875544;29;20127;-72
2021/04/14 00:46:41;;;;;;;7.95;4.43;;;-0.50;99.90;;;;;;4891011;29;20056;-72
2021/04/14 00:49:11;;;;;;;9.15;4.97;;;-0.50;99.90;;;;;;4890102;29;20056;-72
2021/04/14 00:51:38;;;;;;;8.57;4.35;;;-0.50;99.90;;;;;;4890637;29;20049;-73
2021/04/14 00:54:04;;;;;;;7.53;4.40;;;-0.50;99.90;;;;;;4873896;29;20703;-73
2021/04/14 00:56:31;;;;;;;7.60;3.80;;;-0.50;99.90;;;;;;4889717;29;20049;-73
2021/04/14 00:58:57;;;;;;;15.63;4.88;;;-0.60;99.90;;;;;;4891200;29;20056;-72
2021/04/14 01:01:25;;;;;;;12.40;5.00;;;-0.50;99.90;;;;;;4874720;29;20052;-72
2021/04/14 01:03:55;;;;;;;15.75;5.15;;;-0.50;99.90;;;;;;4889936;29;20060;-72
2021/04/14 01:06:25;;;;;;;12.65;4.78;;;-0.60;99.90;;;;;;4883211;29;20436;-71
2021/04/14 01:08:52;;;;;;;16.38;4.95;;;-0.60;99.90;;;;;;4881687;29;20057;-71
2021/04/14 01:11:20;;;;;;;10.43;4.75;;;-0.50;99.90;;;;;;4871506;29;20052;-72
2021/04/14 01:13:47;;;;;;;11.13;4.72;;;-0.40;99.90;;;;;;4881467;29;20647;-70
2021/04/14 01:16:14;;;;;;;10.90;5.88;;;-0.50;99.90;;;;;;4888935;29;20048;-72
2021/04/14 01:18:41;;;;;;;11.43;4.55;;;-0.60;99.90;;;;;;4890607;29;20072;-73
2021/04/14 01:21:22;;;;;;;14.65;5.53;;;-0.50;99.90;;;;;;4905602;29;20064;-73
2021/04/14 01:23:49;;;;;;;14.68;5.47;;;-0.60;99.90;;;;;;4902518;29;20145;-73
2021/04/14 01:26:15;;;;;;;10.60;4.88;;;-0.50;99.90;;;;;;4869561;29;20064;-73
2021/04/14 01:28:44;;;;;;;10.70;5.57;;;-0.50;99.90;;;;;;4884828;29;20053;-72
2021/04/14 01:31:14;;;;;;;13.65;5.18;;;-0.40;99.90;;;;;;4883004;29;20151;-73
2021/04/14 01:33:41;;;;;;;20.25;6.50;;;-0.30;99.90;;;;;;4876186;29;20075;-73
2021/04/14 01:36:09;;;;;;;11.25;4.82;;;-0.20;99.90;;;;;;4870028;29;20430;-73
2021/04/14 01:38:36;;;;;;;7.05;4.55;;;-0.20;99.90;;;;;;4886091;29;20044;-73
2021/04/14 01:41:06;;;;;;;7.40;5.00;;;-0.20;99.90;;;;;;4882009;29;20087;-72
2021/04/14 01:43:32;;;;;;;9.25;4.95;;;-0.30;99.90;;;;;;4878413;29;20080;-72
2021/04/14 01:45:59;;;;;;;8.70;5.13;;;-0.20;99.90;;;;;;4901342;29;20048;-72
2021/04/14 01:48:26;;;;;;;10.95;6.22;;;-0.20;99.90;;;;;;4872796;29;20052;-74
2021/04/14 01:50:52;;;;;;;12.50;5.60;;;-0.30;99.90;;;;;;4877192;29;20069;-72
2021/04/14 01:53:20;;;;;;;12.30;6.10;;;-0.40;99.90;;;;;;4874144;29;20081;-73
2021/04/14 02:57:30;;;;;;;12.55;7.10;;;-1.60;99.90;;;;;;4631273;30;20057;-73
2021/04/14 02:59:56;;;;;;;12.23;7.30;;;-1.50;99.90;;;;;;4657895;30;20481;-71
2021/04/14 03:02:22;;;;;;;17.27;7.70;;;-1.50;99.90;;;;;;4678541;30;20101;-71
2021/04/14 03:04:48;;;;;;;13.05;7.97;;;-1.30;99.90;;;;;;4700734;30;20052;-72
2021/04/14 03:07:29;;;;;;;12.93;7.85;;;-1.20;99.90;;;;;;4758897;29;20116;-71
2021/04/14 03:10:11;;;;;;;17.35;6.78;;;-1.30;99.90;;;;;;4759151;30;20044;-72
2021/04/14 03:12:53;;;;;;;11.63;7.43;;;-1.50;99.90;;;;;;4789562;29;20057;-72
2021/04/14 03:15:32;;;;;;;11.98;6.88;;;-1.30;99.90;;;;;;4800742;29;20087;-72
2021/04/14 03:17:59;;;;;;;14.82;7.15;;;-1.50;99.90;;;;;;4801196;29;20055;-73
2021/04/14 03:20:26;;;;;;;22.67;10.00;;;-1.60;99.90;;;;;;4836316;29;20083;-72
2021/04/14 03:22:55;;;;;;;21.90;11.20;;;-1.40;99.90;;;;;;4869893;29;20524;-72
2021/04/14 03:25:24;;;;;;;20.00;9.85;;;-1.30;99.90;;;;;;4852833;29;20571;-73
2021/04/14 03:27:51;;;;;;;19.45;9.90;;;-1.40;99.90;;;;;;4872674;29;20057;-72
2021/04/14 03:30:18;;;;;;;15.10;8.27;;;-1.60;99.90;;;;;;4858312;29;20049;-72
2021/04/14 03:32:44;;;;;;;27.75;9.98;;;-1.60;99.90;;;;;;4887612;29;20055;-72
2021/04/14 03:35:11;;;;;;;23.10;9.25;;;-1.70;99.90;;;;;;4872424;29;20064;-73
2021/04/14 03:37:38;;;;;;;19.67;9.45;;;-1.60;99.90;;;;;;4896252;29;20056;-72
2021/04/14 03:40:06;;;;;;;13.13;8.70;;;-1.60;99.90;;;;;;4874671;29;20116;-72
2021/04/14 03:42:33;;;;;;;17.52;9.18;;;-1.60;99.90;;;;;;4872508;29;20060;-72
2021/04/14 03:45:01;;;;;;;22.65;9.20;;;-1.60;99.90;;;;;;4883297;29;20531;-73
2021/04/14 03:47:28;;;;;;;15.23;8.82;;;-1.70;99.90;;;;;;4891674;29;20504;-73
2021/04/14 03:49:54;;;;;;;15.38;8.20;;;-1.70;99.90;;;;;;4891583;29;20045;-73
2021/04/14 03:52:21;;;;;;;12.88;8.13;;;-1.70;99.90;;;;;;4891664;29;20056;-72
2021/04/14 03:54:47;;;;;;;16.98;9.02;;;-1.70;99.90;;;;;;4905957;29;20088;-73
2021/04/14 03:57:14;;;;;;;20.73;9.77;;;-1.70;99.90;;;;;;4875055;29;20071;-74
2021/04/14 03:59:41;;;;;;;24.00;12.05;;;-1.80;99.90;;;;;;4891437;29;20067;-73
2021/04/14 04:02:07;;;;;;;21.25;11.23;;;-1.70;99.90;;;;;;4875614;29;20076;-72
2021/04/14 04:04:33;;;;;;;25.27;11.93;;;-1.60;99.90;;;;;;4907250;29;20547;-73
2021/04/14 04:07:00;;;;;;;22.40;11.18;;;-1.60;99.90;;;;;;4877383;29;20073;-73
2021/04/14 04:09:27;;;;;;;21.25;12.50;;;-1.60;99.90;;;;;;4880155;29;20086;-72
2021/04/14 04:11:53;;;;;;;22.75;11.18;;;-1.60;99.90;;;;;;4883502;29;20554;-73
2021/04/14 04:14:20;;;;;;;23.52;12.00;;;-1.60;99.90;;;;;;4873627;29;20053;-73
2021/04/14 04:16:46;;;;;;;20.80;12.70;;;-1.50;99.90;;;;;;4876627;29;20056;-73
2021/04/14 04:19:14;;;;;;;20.80;11.57;;;-1.70;99.90;;;;;;4888351;29;20056;-73
2021/04/14 04:21:40;;;;;;;21.70;12.23;;;-1.70;99.90;;;;;;4890373;29;20539;-72
2021/04/14 04:24:07;;;;;;;21.25;11.50;;;-1.70;99.90;;;;;;4875204;29;20064;-73
2021/04/14 04:26:33;;;;;;;24.52;12.80;;;-1.60;99.90;;;;;;4906059;29;20432;-72
2021/04/14 04:29:00;;;;;;;21.58;13.52;;;-1.50;99.90;;;;;;4891483;29;20112;-73
2021/04/14 04:31:26;;;;;;;23.73;14.35;;;-1.50;99.90;;;;;;4889019;29;20048;-73
2021/04/14 04:33:53;;;;;;;24.48;14.68;;;-1.40;99.90;;;;;;4867332;29;20065;-72
2021/04/14 04:36:19;;;;;;;27.17;14.93;;;-1.40;99.90;;;;;;4882144;29;20052;-73
2021/04/14 04:38:46;;;;;;;22.58;13.70;;;-1.30;99.90;;;;;;4885184;29;20056;-74
2021/04/14 04:41:12;;;;;;;27.38;15.85;;;-1.40;99.90;;;;;;4850197;29;20060;-71
2021/04/14 04:43:40;;;;;;;28.95;16.77;;;-1.50;99.90;;;;;;4880928;29;20064;-71
2021/04/14 04:46:07;;;;;;;29.17;17.27;;;-1.30;99.90;;;;;;4889475;29;20052;-72
2021/04/14 04:48:33;;;;;;;41.28;19.67;;;-1.30;99.90;;;;;;4906664;29;20108;-71
2021/04/14 04:51:00;;;;;;;28.67;16.42;;;-1.40;99.90;;;;;;4889682;29;20515;-72
2021/04/14 04:53:27;;;;;;;23.95;15.18;;;-1.40;99.90;;;;;;4871116;29;20644;-73
2021/04/14 04:55:53;;;;;;;20.48;15.35;;;-1.50;99.90;;;;;;4904731;29;20060;-72
2021/04/14 04:58:20;;;;;;;28.65;18.08;;;-1.40;99.90;;;;;;4874734;29;20056;-71
2021/04/14 05:00:47;;;;;;;26.65;17.85;;;-1.50;99.90;;;;;;4874034;29;20575;-72
2021/04/14 05:03:16;;;;;;;31.60;18.13;;;-1.50;99.90;;;;;;4886589;29;20583;-72
2021/04/14 05:05:43;;;;;;;32.03;18.35;;;-1.50;99.90;;;;;;4881303;29;20299;-72
2021/04/14 05:08:11;;;;;;;31.27;18.48;;;-1.30;99.90;;;;;;4900161;29;20056;-72
2021/04/14 05:10:38;;;;;;;24.15;16.20;;;-1.30;99.90;;;;;;4890109;29;20044;-71
2021/04/14 05:13:07;;;;;;;26.13;17.05;;;-1.20;99.90;;;;;;4886978;29;20060;-72
2021/04/14 05:15:36;;;;;;;26.77;16.88;;;-1.00;99.90;;;;;;4870942;29;20057;-71
2021/04/14 05:18:03;;;;;;;29.92;18.25;;;-1.10;99.90;;;;;;4901419;29;20064;-72
2021/04/14 05:20:30;;;;;;;33.95;19.63;;;-1.00;99.90;;;;;;4886702;29;20080;-72
2021/04/14 05:22:57;;;;;;;29.40;17.58;;;-1.00;99.90;;;;;;4870965;29;20067;-72
2021/04/14 05:25:30;;;;;;;29.80;18.83;;;-1.00;99.90;;;;;;4905714;29;20048;-72
2021/04/14 05:28:02;;;;;;;27.77;18.73;;;-0.80;99.90;;;;;;4874401;29;20045;-72
2021/04/14 05:30:29;;;;;;;31.70;18.13;;;-0.60;99.90;;;;;;4889610;29;20068;-72
2021/04/14 05:32:56;;;;;;;32.22;18.85;;;-0.60;99.90;;;;;;4886732;29;20524;-72
2021/04/14 05:35:23;;;;;;;30.33;19.38;;;-0.70;99.90;;;;;;4890131;29;20136;-72
2021/04/14 05:37:50;;;;;;;33.60;19.48;;;-0.60;99.90;;;;;;4887838;29;20061;-73
2021/04/14 05:40:17;;;;;;;25.92;17.60;;;-0.50;99.90;;;;;;4855557;29;20225;-71
2021/04/14 05:42:46;;;;;;;36.22;19.88;;;-0.50;99.90;;;;;;4876057;29;20580;-73
2021/04/14 05:45:17;;;;;;;30.85;19.55;;;-0.50;99.90;;;;;;4884609;29;20044;-73
2021/04/14 05:47:44;;;;;;;31.98;19.42;;;-0.40;99.90;;;;;;4903881;29;20523;-71
2021/04/14 05:50:14;;;;;;;30.15;19.55;;;-0.30;99.90;;;;;;4871068;29;20092;-73
2021/04/14 05:52:40;;;;;;;32.75;21.05;;;-0.30;99.90;;;;;;4870299;29;20160;-73
2021/04/14 05:55:08;;;;;;;34.97;21.50;;;-0.10;99.90;;;;;;4885973;29;20056;-72
2021/04/14 05:57:35;;;;;;;31.67;21.13;;;0.10;99.90;;;;;;4870201;29;20065;-73
2021/04/14 06:00:07;;;;;;;35.08;23.95;;;0.20;99.90;;;;;;4871619;29;20081;-73
2021/04/14 06:02:34;;;;;;;33.33;20.95;;;0.30;99.90;;;;;;4871030;29;20060;-73
2021/04/14 06:05:00;;;;;;;35.38;23.40;;;0.50;99.90;;;;;;4874346;29;20048;-73
2021/04/14 06:07:27;;;;;;;35.47;23.30;;;0.60;99.90;;;;;;4870904;29;20065;-73
2021/04/14 06:09:53;;;;;;;31.23;21.10;;;0.50;99.90;;;;;;4877962;29;20045;-72
2021/04/14 06:12:20;;;;;;;36.58;21.17;;;0.60;99.90;;;;;;4869511;29;20440;-72
2021/04/14 06:14:46;;;;;;;38.78;23.85;;;0.70;99.90;;;;;;4859081;29;20056;-78
2021/04/14 06:17:13;;;;;;;29.80;20.45;;;0.80;99.90;;;;;;4874116;29;20097;-77
2021/04/14 06:19:40;;;;;;;30.10;20.67;;;0.90;99.90;;;;;;4894324;29;20060;-77
2021/04/14 06:22:07;;;;;;;38.67;26.42;;;0.90;99.90;;;;;;4895010;29;20111;-78
2021/04/14 06:24:34;;;;;;;36.65;23.80;;;0.90;99.90;;;;;;4879572;29;20080;-79
2021/04/14 06:27:04;;;;;;;60.80;37.50;;;0.90;99.90;;;;;;4909463;29;20062;-79
2021/04/14 06:29:31;;;;;;;60.35;35.35;;;1.00;99.90;;;;;;4891172;29;20072;-77
2021/04/14 06:31:58;;;;;;;38.55;25.10;;;1.00;99.90;;;;;;4881608;29;20049;-79
2021/04/14 06:34:26;;;;;;;37.90;26.85;;;1.10;99.90;;;;;;4905216;29;20056;-79
2021/04/14 06:36:56;;;;;;;56.08;34.72;;;1.20;99.90;;;;;;4892786;29;20055;-79
2021/04/14 06:39:27;;;;;;;38.25;24.60;;;1.20;99.90;;;;;;4890464;29;20148;-79
2021/04/14 06:42:08;;;;;;;26.98;21.10;;;1.30;99.90;;;;;;4904064;29;20058;-80
2021/04/14 06:45:12;;;;;;;30.73;22.08;;;1.40;99.90;;;;;;4893808;29;20083;-80
2021/04/14 06:47:51;;;;;;;28.65;21.50;;;1.40;99.90;;;;;;4907007;29;20145;-77
2021/04/14 06:50:26;;;;;;;31.90;22.58;;;1.60;99.90;;;;;;4887057;29;20057;-77
2021/04/14 06:53:09;;;;;;;28.63;20.98;;;1.80;99.90;;;;;;4906216;29;20432;-78
2021/04/14 06:55:41;;;;;;;25.17;18.83;;;2.00;99.90;;;;;;4873077;29;20140;-79
2021/04/14 06:58:17;;;;;;;27.20;18.05;;;2.30;99.90;;;;;;4888107;29;20618;-78
2021/04/14 07:00:48;;;;;;;21.58;16.02;;;2.50;99.90;;;;;;4892722;29;20045;-78
2021/04/14 07:03:27;;;;;;;22.15;16.40;;;2.70;99.90;;;;;;4879314;29;20058;-78
2021/04/14 07:06:00;;;;;;;23.85;14.98;;;2.80;99.90;;;;;;4891818;29;20044;-78
2021/04/14 07:08:31;;;;;;;21.10;15.60;;;3.10;99.90;;;;;;4866577;29;20051;-78
2021/04/14 07:11:00;;;;;;;18.23;14.38;;;3.30;99.90;;;;;;4903381;29;20060;-73
2021/04/14 07:13:29;;;;;;;15.38;13.35;;;3.40;99.90;;;;;;4863393;29;20048;-78
2021/04/14 07:16:16;;;;;;;15.15;12.55;;;3.50;99.90;;;;;;4890830;29;20057;-78
2021/04/14 07:19:19;;;;;;;17.70;12.48;;;3.60;99.90;;;;;;4878021;29;20063;-78
2021/04/14 07:21:51;;;;;;;18.58;13.30;;;3.70;99.90;;;;;;4827522;29;20052;-77
2021/04/14 07:24:33;;;;;;;20.10;15.70;;;3.90;99.90;;;;;;4884934;29;20322;-78
2021/04/14 07:27:33;;;;;;;20.65;13.88;;;3.90;99.90;;;;;;4892858;29;20057;-77
2021/04/14 07:30:08;;;;;;;14.45;13.02;;;3.80;99.90;;;;;;4865262;29;20479;-77
2021/04/14 07:32:50;;;;;;;14.02;11.30;;;3.90;99.90;;;;;;4887433;29;20139;-78
2021/04/14 07:35:19;;;;;;;15.13;11.90;;;4.00;99.90;;;;;;4862409;29;20052;-77
2021/04/14 07:37:49;;;;;;;21.55;14.02;;;4.00;99.90;;;;;;4900846;29;20052;-77
2021/04/14 07:40:46;;;;;;;16.02;14.27;;;4.00;99.90;;;;;;4872508;29;20532;-76
2021/04/14 07:43:34;;;;;;;14.05;12.60;;;4.30;99.90;;;;;;4878524;29;20049;-77
2021/04/14 07:46:04;;;;;;;14.82;13.52;;;4.90;99.90;;;;;;4889472;29;20112;-78
2021/04/14 07:48:33;;;;;;;16.08;14.13;;;5.40;99.90;;;;;;4889728;29;20099;-75
2021/04/14 07:51:02;;;;;;;17.40;14.57;;;5.40;99.90;;;;;;4887218;29;20057;-75
2021/04/14 07:53:33;;;;;;;12.27;11.02;;;5.30;99.90;;;;;;4905766;29;20508;-78
2021/04/14 07:56:06;;;;;;;14.55;12.73;;;5.00;99.90;;;;;;4891709;29;20072;-78
2021/04/14 07:58:34;;;;;;;15.13;11.85;;;4.80;99.90;;;;;;4888527;29;20055;-76
2021/04/14 08:01:12;;;;;;;15.40;13.50;;;4.60;99.90;;;;;;4889362;29;20053;-76
2021/04/14 08:03:40;;;;;;;19.73;13.63;;;4.50;99.90;;;;;;4858500;29;20045;-77
2021/04/14 08:06:28;;;;;;;18.42;13.55;;;4.40;99.90;;;;;;4897102;29;20513;-77
2021/04/14 08:08:55;;;;;;;15.70;13.60;;;4.30;99.90;;;;;;4882566;29;20088;-77
2021/04/14 08:11:31;;;;;;;22.40;17.00;;;4.30;99.90;;;;;;4885042;29;20053;-76
2021/04/14 08:14:37;;;;;;;17.60;15.77;;;4.30;99.90;;;;;;4880991;29;20056;-77
2021/04/14 08:17:20;;;;;;;19.80;15.60;;;4.40;99.90;;;;;;4868617;29;20520;-76
2021/04/14 08:19:59;;;;;;;16.88;12.35;;;4.40;99.90;;;;;;4892655;29;20057;-77
2021/04/14 08:22:28;;;;;;;18.75;14.60;;;4.40;99.90;;;;;;4878163;29;20052;-76
2021/04/14 08:25:03;;;;;;;18.17;13.48;;;4.70;99.90;;;;;;4891531;29;20048;-77
2021/04/14 08:27:33;;;;;;;15.33;12.47;;;4.70;99.90;;;;;;4890574;29;20083;-76
2021/04/14 08:30:06;;;;;;;13.45;11.98;;;5.00;99.90;;;;;;4881940;29;20133;-77
2021/04/14 08:32:35;;;;;;;15.93;13.25;;;4.90;99.90;;;;;;4885602;29;20131;-76
2021/04/14 08:35:10;;;;;;;16.02;14.15;;;5.30;99.90;;;;;;4872950;29;20055;-77
2021/04/14 08:37:37;;;;;;;13.85;12.75;;;5.90;99.90;;;;;;4891696;29;20056;-77
2021/04/14 08:40:21;;;;;;;19.50;15.75;;;6.50;99.90;;;;;;4885006;29;20052;-77
2021/04/14 08:42:50;;;;;;;15.33;14.27;;;6.50;99.90;;;;;;4878521;29;20075;-78
2021/04/14 08:45:32;;;;;;;18.13;16.15;;;6.20;99.90;;;;;;4885039;29;20100;-78
2021/04/14 08:48:25;;;;;;;17.20;15.55;;;5.80;99.90;;;;;;4875818;29;20547;-77
2021/04/14 08:50:55;;;;;;;18.13;16.42;;;5.70;99.90;;;;;;4875086;29;20060;-77
2021/04/14 08:53:30;;;;;;;17.92;16.08;;;5.60;99.90;;;;;;4873341;29;20116;-78
2021/04/14 08:55:57;;;;;;;17.35;15.70;;;5.40;99.90;;;;;;4872251;29;20420;-77
2021/04/14 08:58:23;;;;;;;17.50;15.80;;;5.30;99.90;;;;;;4872136;29;20109;-77
2021/04/14 09:00:51;;;;;;;17.48;15.88;;;5.20;99.90;;;;;;4855861;29;20056;-77
2021/04/14 09:03:22;;;;;;;16.05;14.63;;;5.20;99.90;;;;;;4887617;29;20053;-77
2021/04/14 09:05:49;;;;;;;16.70;15.20;;;5.40;99.90;;;;;;4889461;29;20049;-78
2021/04/14 09:08:20;;;;;;;18.08;16.20;;;5.50;99.90;;;;;;4892242;29;20076;-77
2021/04/14 09:11:00;;;;;;;16.67;15.25;;;5.50;99.90;;;;;;4895803;29;20136;-77
2021/04/14 09:13:53;;;;;;;24.98;17.90;;;5.50;99.90;;;;;;4859844;29;20048;-77
2021/04/14 09:16:46;;;;;;;18.13;16.63;;;5.60;99.90;;;;;;4874056;29;20084;-77
2021/04/14 09:19:22;;;;;;;17.38;15.80;;;5.70;99.90;;;;;;4876152;29;20051;-79
2021/04/14 09:21:57;;;;;;;17.25;15.68;;;5.60;99.90;;;;;;4888113;29;20045;-78
2021/04/14 09:24:44;;;;;;;17.58;15.88;;;5.50;99.90;;;;;;4872223;29;20045;-77
2021/04/14 09:27:22;;;;;;;15.85;14.63;;;5.40;99.90;;;;;;4870871;29;20416;-78
2021/04/14 09:30:00;;;;;;;16.88;15.43;;;5.60;99.90;;;;;;4872311;29;20049;-77
2021/04/14 09:32:45;;;;;;;16.67;15.38;;;5.70;99.90;;;;;;4876231;29;20164;-77
2021/04/14 09:35:36;;;;;;;13.83;12.93;;;5.80;99.90;;;;;;4887995;29;20048;-77
2021/04/14 09:39:00;;;;;;;14.63;13.23;;;5.40;99.90;;;;;;4886109;29;20053;-77
2021/04/14 09:41:16;;;;;;;14.43;13.52;;;5.50;99.90;;;;;;4874437;29;20460;-77
2021/04/14 09:43:46;;;;;;;15.30;14.00;;;5.90;99.90;;;;;;4892303;29;20062;-77
2021/04/14 09:46:34;;;;;;;15.32;14.18;;;6.20;99.90;;;;;;4862733;29;20064;-76
2021/04/14 09:49:37;;;;;;;15.60;14.07;;;6.30;99.90;;;;;;4895646;29;20321;-77
2021/04/14 09:52:27;;;;;;;15.93;14.52;;;6.70;99.90;;;;;;4877917;29;20048;-76
2021/04/14 09:55:26;;;;;;;15.55;14.18;;;7.20;99.90;;;;;;4880501;29;20048;-77
2021/04/14 09:57:54;;;;;;;13.65;12.75;;;7.30;99.90;;;;;;4908505;29;20546;-78
2021/04/14 10:00:29;;;;;;;14.23;13.32;;;7.30;99.90;;;;;;4894006;29;20582;-78
2021/04/14 10:02:59;;;;;;;13.57;12.82;;;7.40;99.90;;;;;;4863054;29;20054;-78
2021/04/14 10:05:31;;;;;;;14.00;12.98;;;7.30;99.90;;;;;;4895075;29;20052;-78
2021/04/14 10:08:00;;;;;;;13.32;12.32;;;7.30;99.90;;;;;;4878276;29;20057;-77
2021/04/14 10:10:27;;;;;;;13.63;12.73;;;7.20;99.90;;;;;;4900254;29;20481;-77
2021/04/14 10:12:54;;;;;;;14.77;13.60;;;7.00;99.90;;;;;;4889859;29;20080;-78
2021/04/14 10:15:38;;;;;;;13.23;11.43;;;6.90;99.90;;;;;;4889684;29;20056;-78
2021/04/14 10:18:19;;;;;;;13.18;12.38;;;7.00;99.90;;;;;;4891461;29;20056;-77
2021/04/14 10:20:46;;;;;;;13.43;12.57;;;7.00;99.90;;;;;;4890947;29;20049;-77
2021/04/14 10:23:17;;;;;;;12.80;11.82;;;7.10;99.90;;;;;;4890325;29;20045;-77
2021/04/14 10:25:44;;;;;;;13.98;12.63;;;7.30;99.90;;;;;;4878159;29;20061;-77
2021/04/14 10:28:14;;;;;;;13.57;12.63;;;7.10;99.90;;;;;;4908096;29;20045;-77
2021/04/14 10:31:05;;;;;;;14.80;13.50;;;7.10;99.90;;;;;;4909305;29;20045;-77
2021/04/14 10:33:32;;;;;;;14.60;12.38;;;6.80;99.90;;;;;;4893753;29;20551;-76
2021/04/14 10:36:13;;;;;;;14.00;12.80;;;6.60;99.90;;;;;;4893906;29;20056;-76
2021/04/14 10:38:41;;;;;;;14.35;13.07;;;6.60;99.90;;;;;;4901647;29;20049;-76
2021/04/14 10:41:22;;;;;;;12.48;11.57;;;6.60;99.90;;;;;;4871454;29;20504;-77
2021/04/14 10:43:50;;;;;;;13.60;12.73;;;6.60;99.90;;;;;;4865179;29;20131;-77
2021/04/14 10:46:36;;;;;;;12.63;11.70;;;6.90;99.90;;;;;;4894667;29;20041;-77
2021/04/14 10:49:11;;;;;;;13.52;12.35;;;7.20;99.90;;;;;;4866991;29;20041;-77
2021/04/14 10:51:51;;;;;;;17.38;12.27;;;7.30;99.90;;;;;;4888984;29;20049;-77
2021/04/14 10:54:27;;;;;;;12.55;11.82;;;7.20;99.90;;;;;;4878339;29;20500;-76
2021/04/14 10:57:13;;;;;;;14.20;12.95;;;7.00;99.90;;;;;;4890991;29;20439;-77
2021/04/14 10:59:40;;;;;;;14.02;12.57;;;7.10;99.90;;;;;;4875026;29;20056;-77
2021/04/14 11:02:18;;;;;;;11.57;10.73;;;7.40;99.90;;;;;;4859076;29;20069;-80
2021/04/14 11:04:47;;;;;;;10.20;9.50;;;7.70;99.90;;;;;;4893290;29;20420;-80
2021/04/14 11:07:19;;;;;;;11.75;10.85;;;7.50;99.90;;;;;;4876634;29;20049;-80
2021/04/14 11:09:47;;;;;;;10.48;9.77;;;7.60;99.90;;;;;;4892336;29;20099;-80
2021/04/14 11:12:23;;;;;;;10.88;10.25;;;7.20;99.90;;;;;;4905829;29;20060;-78
2021/04/14 11:14:55;;;;;;;11.52;10.80;;;7.20;99.90;;;;;;4872115;29;20472;-82
2021/04/14 11:17:26;;;;;;;12.52;11.52;;;7.20;99.90;;;;;;4906152;29;20145;-80
2021/04/14 11:19:58;;;;;;;12.38;11.75;;;7.30;99.90;;;;;;4884685;29;20131;-79
2021/04/14 11:22:26;;;;;;;12.40;11.55;;;7.40;99.90;;;;;;4906896;29;20079;-82
2021/04/14 11:24:56;;;;;;;11.95;11.27;;;7.70;99.90;;;;;;4879299;29;20056;-82
2021/04/14 11:27:28;;;;;;;13.80;12.73;;;8.10;99.90;;;;;;4870906;29;20942;-78
2021/04/14 11:30:14;;;;;;;13.15;12.43;;;8.40;99.90;;;;;;4858028;29;20049;-80
2021/04/14 11:32:51;;;;;;;12.25;11.07;;;8.80;99.90;;;;;;4879756;29;20052;-80
2021/04/14 11:35:33;;;;;;;11.63;10.68;;;8.90;99.90;;;;;;4895326;29;20068;-81
2021/04/14 11:38:00;;;;;;;11.55;10.65;;;8.70;99.90;;;;;;4891613;29;20057;-80
2021/04/14 11:40:35;;;;;;;13.07;12.07;;;8.20;99.90;;;;;;4880838;29;20057;-80
2021/04/14 11:43:27;;;;;;;12.45;11.40;;;7.80;99.90;;;;;;4893503;29;20535;-80
2021/04/14 11:46:23;;;;;;;12.02;11.23;;;7.80;99.90;;;;;;4861843;29;20041;-80
2021/04/14 11:48:58;;;;;;;12.48;11.52;;;7.60;99.90;;;;;;4879260;29;20485;-82
2021/04/14 11:51:34;;;;;;;10.98;10.00;;;7.00;99.90;;;;;;4884350;29;20059;-79
2021/04/14 11:54:07;;;;;;;9.60;9.02;;;6.30;99.90;;;;;;4892322;29;20530;-80
2021/04/14 11:56:40;;;;;;;8.80;8.27;;;6.00;99.90;;;;;;4857777;29;20053;-81
2021/04/14 11:59:22;;;;;;;10.55;9.70;;;5.90;99.90;;;;;;4880426;29;20064;-81
2021/04/14 12:01:53;;;;;;;9.73;9.30;;;5.90;99.90;;;;;;4860703;29;20064;-80
2021/04/14 12:04:20;;;;;;;10.60;9.82;;;6.40;99.90;;;;;;4878231;29;20109;-79
2021/04/14 12:06:47;;;;;;;11.30;10.70;;;6.90;99.90;;;;;;4896980;29;20416;-81
2021/04/14 12:09:14;;;;;;;10.77;10.20;;;7.40;99.90;;;;;;4881860;29;20480;-80
2021/04/14 12:11:40;;;;;;;11.30;10.70;;;7.50;99.90;;;;;;4899425;29;20056;-80
2021/04/14 12:14:07;;;;;;;10.65;9.73;;;8.00;99.90;;;;;;4894069;29;20803;-79
2021/04/14 12:16:36;;;;;;;11.43;10.82;;;8.30;99.90;;;;;;4893192;29;20599;-80
2021/04/14 12:19:03;;;;;;;12.25;11.15;;;8.20;99.90;;;;;;4879480;29;20140;-79
2021/04/14 12:21:31;;;;;;;12.23;11.18;;;8.20;99.90;;;;;;4891763;29;20037;-80
2021/04/14 12:23:57;;;;;;;10.52;10.02;;;8.30;99.90;;;;;;4893511;29;20065;-82
2021/04/14 12:26:24;;;;;;;10.60;10.10;;;8.00;99.90;;;;;;4893783;29;20044;-79
2021/04/14 12:28:50;;;;;;;10.27;9.63;;;7.70;99.90;;;;;;4894608;29;20053;-80
2021/04/14 12:31:17;;;;;;;11.23;10.52;;;7.60;99.90;;;;;;4890445;29;20156;-80
2021/04/14 12:33:48;;;;;;;10.35;9.70;;;7.80;99.90;;;;;;4860031;29;20063;-79
2021/04/14 12:36:15;;;;;;;11.38;10.45;;;7.70;99.90;;;;;;4883747;29;20056;-80
2021/04/14 12:38:42;;;;;;;11.98;11.43;;;7.30;99.90;;;;;;4876111;29;20500;-80
2021/04/14 12:41:08;;;;;;;11.25;10.25;;;7.10;99.90;;;;;;4884235;29;20060;-80
2021/04/14 12:43:35;;;;;;;12.20;11.15;;;7.40;99.90;;;;;;4895543;29;20055;-79
2021/04/14 12:46:02;;;;;;;12.02;11.13;;;7.70;99.90;;;;;;4873839;29;20045;-79
2021/04/14 12:48:29;;;;;;;11.00;10.45;;;7.80;99.90;;;;;;4859677;29;20053;-78
2021/04/14 12:51:07;;;;;;;11.73;10.93;;;7.90;99.90;;;;;;4872698;29;20057;-80
2021/04/14 12:53:41;;;;;;;11.88;10.82;;;8.10;99.90;;;;;;4892003;29;20052;-79
2021/04/14 12:56:14;;;;;;;11.13;10.30;;;8.30;99.90;;;;;;4907926;29;20136;-79
2021/04/14 12:58:42;;;;;;;11.32;10.57;;;8.50;99.90;;;;;;4875074;29;20057;-79
2021/04/14 13:01:10;;;;;;;11.95;11.05;;;8.40;99.90;;;;;;4872833;29;20260;-80
2021/04/14 13:03:57;;;;;;;11.82;11.05;;;8.30;99.90;;;;;;4908194;29;20048;-80
2021/04/14 13:06:48;;;;;;;12.40;11.55;;;8.60;99.90;;;;;;4891380;29;20048;-79
2021/04/14 13:09:14;;;;;;;11.00;10.15;;;8.60;99.90;;;;;;4888780;29;20840;-79
2021/04/14 13:11:50;;;;;;;11.15;10.48;;;8.80;99.90;;;;;;4851657;29;20057;-81
2021/04/14 13:14:17;;;;;;;12.38;11.38;;;8.80;99.90;;;;;;4888549;29;20155;-79
2021/04/14 13:16:55;;;;;;;12.02;11.10;;;9.00;99.90;;;;;;4855481;29;20053;-79
2021/04/14 13:19:25;;;;;;;12.27;11.32;;;9.20;99.90;;;;;;4857129;29;20060;-80
2021/04/14 13:21:58;;;;;;;11.70;10.73;;;8.70;99.90;;;;;;4903869;29;20147;-80
2021/04/14 13:24:39;;;;;;;10.90;10.10;;;8.60;99.90;;;;;;4903730;29;20098;-79
2021/04/14 13:27:09;;;;;;;10.75;10.00;;;8.70;99.90;;;;;;4891374;29;20049;-81
2021/04/14 13:29:39;;;;;;;11.15;10.38;;;8.80;99.90;;;;;;4890735;29;20057;-79
2021/04/14 13:32:48;;;;;;;12.02;11.40;;;9.10;99.90;;;;;;4892269;29;20059;-80
2021/04/14 13:35:34;;;;;;;12.50;11.95;;;9.10;99.90;;;;;;4881184;29;20095;-80
2021/04/14 13:38:08;;;;;;;12.45;11.75;;;9.30;99.90;;;;;;4865150;29;20057;-82
2021/04/14 13:40:46;;;;;;;12.80;11.95;;;9.30;99.90;;;;;;4895373;29;20121;-80
2021/04/14 13:43:55;;;;;;;14.70;13.52;;;9.50;99.90;;;;;;4886876;29;20519;-80
2021/04/14 13:46:43;;;;;;;13.63;12.90;;;9.30;99.90;;;;;;4871857;29;20052;-79
2021/04/14 13:49:24;;;;;;;12.90;12.10;;;9.10;99.90;;;;;;4913518;29;20354;-79
2021/04/14 13:51:56;;;;;;;11.80;11.18;;;9.10;99.90;;;;;;4888420;29;20085;-79
2021/04/14 13:54:24;;;;;;;13.80;12.77;;;8.90;99.90;;;;;;4852740;29;20081;-79
2021/04/14 13:56:54;;;;;;;14.10;13.10;;;8.50;99.90;;;;;;4872180;29;20063;-80
2021/04/14 13:59:36;;;;;;;12.02;11.38;;;8.50;99.90;;;;;;4888729;29;20057;-80
2021/04/14 14:02:16;;;;;;;13.30;12.20;;;8.60;99.90;;;;;;4876393;29;20045;-79
2021/04/14 14:04:46;;;;;;;11.85;11.15;;;8.70;99.90;;;;;;4907514;29;20060;-79